Adams, Oklahoma
Current Conditions -  °F | °C
As of 8:15 AM on Saturday 22 Nov 2014 (Local Time) from KLBL Reporting Station
Clear Clear  
Wind Chill: -4°   Ceiling: Unl
Heat Index: -1°   Visibility: 10mi
Dew Point: -5°   Wind: 5mph
Humidity: 75%   Direction: 300°WNW
Pressure: 29.92"   Gusts: NA
Location:  36.76°N, 101.08°W
Report Text: KLBL 221415Z AUTO 30004KT 10SM CLR M01/M05 A2992 RMK AO1
Loading
Personal Weather Stations






























Interactive Weather Map New forecast layout! Learn more

10-Day Weather Forecast

Advertisements
Track Severe Weather on mobile